sensor_id;sensor_type;location;lat;lon;timestamp;P1;P2;P0
26185;PMS7003;20067;48.764;9.176;2023-08-08T00:00:17;15.75;15.75;2.00
26185;PMS7003;20067;48.764;9.176;2023-08-08T00:02:43;12.25;11.00;1.75
26185;PMS7003;20067;48.764;9.176;2023-08-08T00:05:09;14.00;14.00;1.25
26185;PMS7003;20067;48.764;9.176;2023-08-08T00:07:34;13.75;13.25;1.25
26185;PMS7003;20067;48.764;9.176;2023-08-08T00:10:00;16.25;15.25;2.00
26185;PMS7003;20067;48.764;9.176;2023-08-08T00:12:26;13.75;13.75;2.00
26185;PMS7003;20067;48.764;9.176;2023-08-08T00:17:19;14.50;14.50;2.00
26185;PMS7003;20067;48.764;9.176;2023-08-08T00:19:45;14.00;14.00;2.00
26185;PMS7003;20067;48.764;9.176;2023-08-08T00:22:10;15.00;15.00;2.00
26185;PMS7003;20067;48.764;9.176;2023-08-08T00:24:36;18.25;17.00;2.00
26185;PMS7003;20067;48.764;9.176;2023-08-08T00:27:01;13.25;13.25;1.25
26185;PMS7003;20067;48.764;9.176;2023-08-08T00:29:27;11.50;11.50;1.00
26185;PMS7003;20067;48.764;9.176;2023-08-08T00:31:53;10.00;10.00;1.00
26185;PMS7003;20067;48.764;9.176;2023-08-08T00:34:19;13.75;13.00;1.25
26185;PMS7003;20067;48.764;9.176;2023-08-08T00:36:44;13.25;13.25;2.00
26185;PMS7003;20067;48.764;9.176;2023-08-08T00:39:10;10.75;10.75;0.75
26185;PMS7003;20067;48.764;9.176;2023-08-08T00:41:35;12.50;11.50;2.00
26185;PMS7003;20067;48.764;9.176;2023-08-08T00:44:01;13.75;13.75;1.50
26185;PMS7003;20067;48.764;9.176;2023-08-08T00:46:26;13.75;13.75;2.00
26185;PMS7003;20067;48.764;9.176;2023-08-08T00:48:52;11.75;11.75;1.75
26185;PMS7003;20067;48.764;9.176;2023-08-08T00:51:18;8.25;8.25;1.00
26185;PMS7003;20067;48.764;9.176;2023-08-08T00:53:44;14.25;14.25;1.00
26185;PMS7003;20067;48.764;9.176;2023-08-08T00:56:13;14.00;14.00;1.00
26185;PMS7003;20067;48.764;9.176;2023-08-08T00:58:40;14.25;14.25;1.00
26185;PMS7003;20067;48.764;9.176;2023-08-08T01:01:06;15.50;14.25;1.50
26185;PMS7003;20067;48.764;9.176;2023-08-08T01:03:31;14.00;13.00;1.00
26185;PMS7003;20067;48.764;9.176;2023-08-08T01:06:05;9.50;9.50;1.00
26185;PMS7003;20067;48.764;9.176;2023-08-08T01:08:48;13.25;13.00;1.00
26185;PMS7003;20067;48.764;9.176;2023-08-08T01:11:20;13.50;13.50;2.00
26185;PMS7003;20067;48.764;9.176;2023-08-08T01:13:47;16.00;14.00;1.00
26185;PMS7003;20067;48.764;9.176;2023-08-08T01:16:13;16.00;16.00;2.00
26185;PMS7003;20067;48.764;9.176;2023-08-08T01:18:40;12.50;12.50;1.00
26185;PMS7003;20067;48.764;9.176;2023-08-08T01:21:07;15.50;15.50;1.50
26185;PMS7003;20067;48.764;9.176;2023-08-08T01:23:41;15.25;14.25;2.00
26185;PMS7003;20067;48.764;9.176;2023-08-08T01:26:10;14.25;14.25;1.00
26185;PMS7003;20067;48.764;9.176;2023-08-08T01:28:36;12.25;11.75;1.75
26185;PMS7003;20067;48.764;9.176;2023-08-08T01:31:02;13.25;13.25;2.00
26185;PMS7003;20067;48.764;9.176;2023-08-08T01:33:28;14.50;14.50;2.00
26185;PMS7003;20067;48.764;9.176;2023-08-08T01:35:54;15.50;15.50;2.00
26185;PMS7003;20067;48.764;9.176;2023-08-08T01:40:56;15.00;15.00;1.00
26185;PMS7003;20067;48.764;9.176;2023-08-08T01:43:23;18.00;18.00;1.75
26185;PMS7003;20067;48.764;9.176;2023-08-08T01:45:50;19.75;15.75;1.00
26185;PMS7003;20067;48.764;9.176;2023-08-08T01:48:17;12.50;12.50;1.00
26185;PMS7003;20067;48.764;9.176;2023-08-08T01:50:42;15.00;13.75;1.00
26185;PMS7003;20067;48.764;9.176;2023-08-08T01:53:08;12.50;12.50;1.00
26185;PMS7003;20067;48.764;9.176;2023-08-08T01:55:34;10.25;10.00;1.00
26185;PMS7003;20067;48.764;9.176;2023-08-08T01:58:00;11.50;11.50;2.00
26185;PMS7003;20067;48.764;9.176;2023-08-08T02:00:25;14.00;13.25;1.00
26185;PMS7003;20067;48.764;9.176;2023-08-08T02:02:51;14.75;11.00;1.25
26185;PMS7003;20067;48.764;9.176;2023-08-08T02:05:17;12.75;12.75;0.75
26185;PMS7003;20067;48.764;9.176;2023-08-08T02:07:42;13.50;13.00;1.00
26185;PMS7003;20067;48.764;9.176;2023-08-08T02:10:08;15.00;14.75;2.00
26185;PMS7003;20067;48.764;9.176;2023-08-08T02:12:33;11.50;11.50;1.00
26185;PMS7003;20067;48.764;9.176;2023-08-08T02:14:59;13.25;12.75;2.00
26185;PMS7003;20067;48.764;9.176;2023-08-08T02:17:25;13.50;13.50;1.00
26185;PMS7003;20067;48.764;9.176;2023-08-08T02:19:52;14.25;14.25;2.00
26185;PMS7003;20067;48.764;9.176;2023-08-08T02:22:18;10.00;10.00;1.00
26185;PMS7003;20067;48.764;9.176;2023-08-08T02:24:43;11.25;9.50;1.00
26185;PMS7003;20067;48.764;9.176;2023-08-08T02:27:09;14.00;14.00;1.25
26185;PMS7003;20067;48.764;9.176;2023-08-08T02:29:36;13.00;10.50;1.00
26185;PMS7003;20067;48.764;9.176;2023-08-08T02:32:02;11.75;10.50;1.00
26185;PMS7003;20067;48.764;9.176;2023-08-08T02:34:27;13.00;13.00;1.50
26185;PMS7003;20067;48.764;9.176;2023-08-08T02:36:53;19.00;16.00;1.00
26185;PMS7003;20067;48.764;9.176;2023-08-08T02:39:19;12.75;11.25;1.50
26185;PMS7003;20067;48.764;9.176;2023-08-08T02:41:44;10.00;10.00;0.75
26185;PMS7003;20067;48.764;9.176;2023-08-08T02:44:10;13.50;13.50;2.00
26185;PMS7003;20067;48.764;9.176;2023-08-08T02:46:35;11.00;11.00;2.00
26185;PMS7003;20067;48.764;9.176;2023-08-08T02:49:03;16.75;16.00;2.00
26185;PMS7003;20067;48.764;9.176;2023-08-08T02:51:30;15.25;13.75;2.00
26185;PMS7003;20067;48.764;9.176;2023-08-08T02:53:56;14.00;14.00;1.50
26185;PMS7003;20067;48.764;9.176;2023-08-08T02:56:22;13.00;11.50;1.00
26185;PMS7003;20067;48.764;9.176;2023-08-08T02:58:47;13.25;12.00;1.00
26185;PMS7003;20067;48.764;9.176;2023-08-08T03:01:13;13.00;13.00;2.00
26185;PMS7003;20067;48.764;9.176;2023-08-08T03:03:40;19.50;19.50;3.50
26185;PMS7003;20067;48.764;9.176;2023-08-08T03:06:06;14.00;13.50;2.00
26185;PMS7003;20067;48.764;9.176;2023-08-08T03:08:31;14.50;14.50;2.00
26185;PMS7003;20067;48.764;9.176;2023-08-08T03:10:57;12.00;12.00;1.50
26185;PMS7003;20067;48.764;9.176;2023-08-08T03:13:22;13.75;13.75;1.50
26185;PMS7003;20067;48.764;9.176;2023-08-08T03:15:48;10.75;10.75;1.00
26185;PMS7003;20067;48.764;9.176;2023-08-08T03:18:14;15.00;15.00;1.50
26185;PMS7003;20067;48.764;9.176;2023-08-08T03:20:39;13.75;13.75;2.00
26185;PMS7003;20067;48.764;9.176;2023-08-08T03:23:05;14.00;14.00;1.50
26185;PMS7003;20067;48.764;9.176;2023-08-08T03:25:30;13.75;13.75;2.00
26185;PMS7003;20067;48.764;9.176;2023-08-08T03:27:56;13.75;13.50;1.75
26185;PMS7003;20067;48.764;9.176;2023-08-08T03:30:22;22.25;21.25;2.00
26185;PMS7003;20067;48.764;9.176;2023-08-08T03:32:47;13.00;13.00;1.00
26185;PMS7003;20067;48.764;9.176;2023-08-08T03:35:13;16.50;16.50;1.00
26185;PMS7003;20067;48.764;9.176;2023-08-08T03:37:40;13.50;13.50;0.25
26185;PMS7003;20067;48.764;9.176;2023-08-08T03:40:06;17.00;15.50;1.75
26185;PMS7003;20067;48.764;9.176;2023-08-08T03:42:32;12.50;11.00;1.00
26185;PMS7003;20067;48.764;9.176;2023-08-08T03:44:58;10.50;10.50;0.75
26185;PMS7003;20067;48.764;9.176;2023-08-08T03:47:24;11.25;11.25;1.00
26185;PMS7003;20067;48.764;9.176;2023-08-08T03:49:50;15.50;15.00;1.50
26185;PMS7003;20067;48.764;9.176;2023-08-08T03:52:16;18.00;17.00;1.75
26185;PMS7003;20067;48.764;9.176;2023-08-08T03:54:42;15.50;15.25;1.00
26185;PMS7003;20067;48.764;9.176;2023-08-08T03:57:08;21.00;21.00;1.00
26185;PMS7003;20067;48.764;9.176;2023-08-08T03:59:34;20.50;20.00;3.00
26185;PMS7003;20067;48.764;9.176;2023-08-08T04:01:59;30.00;30.00;2.00
26185;PMS7003;20067;48.764;9.176;2023-08-08T04:04:25;26.25;25.00;3.75
26185;PMS7003;20067;48.764;9.176;2023-08-08T04:06:50;20.75;17.00;1.50
26185;PMS7003;20067;48.764;9.176;2023-08-08T04:09:16;17.50;15.00;2.00
26185;PMS7003;20067;48.764;9.176;2023-08-08T04:11:41;18.25;16.75;2.00
26185;PMS7003;20067;48.764;9.176;2023-08-08T04:14:07;16.25;16.25;1.00
26185;PMS7003;20067;48.764;9.176;2023-08-08T04:16:32;14.00;14.00;2.00
26185;PMS7003;20067;48.764;9.176;2023-08-08T04:18:58;14.75;14.75;1.75
26185;PMS7003;20067;48.764;9.176;2023-08-08T04:21:24;13.75;13.75;1.75
26185;PMS7003;20067;48.764;9.176;2023-08-08T04:23:52;18.25;17.25;2.00
26185;PMS7003;20067;48.764;9.176;2023-08-08T04:26:17;13.00;13.00;1.00
26185;PMS7003;20067;48.764;9.176;2023-08-08T04:28:43;13.25;13.25;1.25
26185;PMS7003;20067;48.764;9.176;2023-08-08T04:31:09;17.50;16.50;1.00
26185;PMS7003;20067;48.764;9.176;2023-08-08T04:33:34;20.75;20.75;1.00
26185;PMS7003;20067;48.764;9.176;2023-08-08T04:36:00;10.00;10.00;1.00
26185;PMS7003;20067;48.764;9.176;2023-08-08T04:38:26;11.50;11.50;1.00
26185;PMS7003;20067;48.764;9.176;2023-08-08T04:40:51;7.25;7.25;0.75
26185;PMS7003;20067;48.764;9.176;2023-08-08T04:43:17;8.00;8.00;1.00
26185;PMS7003;20067;48.764;9.176;2023-08-08T04:45:42;11.00;11.00;2.00
26185;PMS7003;20067;48.764;9.176;2023-08-08T04:48:08;12.25;11.00;1.00
26185;PMS7003;20067;48.764;9.176;2023-08-08T04:50:33;13.00;13.00;1.00
26185;PMS7003;20067;48.764;9.176;2023-08-08T04:52:59;12.00;11.75;1.50
26185;PMS7003;20067;48.764;9.176;2023-08-08T04:55:25;12.00;12.00;1.00
26185;PMS7003;20067;48.764;9.176;2023-08-08T04:57:50;12.25;12.25;1.50
26185;PMS7003;20067;48.764;9.176;2023-08-08T05:00:16;11.25;11.25;1.25
26185;PMS7003;20067;48.764;9.176;2023-08-08T05:02:42;11.00;10.50;1.00
26185;PMS7003;20067;48.764;9.176;2023-08-08T05:05:07;13.50;13.50;2.00
26185;PMS7003;20067;48.764;9.176;2023-08-08T05:07:34;12.50;11.25;1.00
26185;PMS7003;20067;48.764;9.176;2023-08-08T05:10:02;10.00;10.00;1.00
26185;PMS7003;20067;48.764;9.176;2023-08-08T05:12:28;15.50;13.75;2.00
26185;PMS7003;20067;48.764;9.176;2023-08-08T05:14:54;14.50;12.50;1.00
26185;PMS7003;20067;48.764;9.176;2023-08-08T05:17:20;11.75;11.75;1.00
26185;PMS7003;20067;48.764;9.176;2023-08-08T05:19:45;15.25;13.25;1.00
26185;PMS7003;20067;48.764;9.176;2023-08-08T05:22:11;13.50;13.50;1.00
26185;PMS7003;20067;48.764;9.176;2023-08-08T05:24:36;7.25;7.25;0.00
26185;PMS7003;20067;48.764;9.176;2023-08-08T05:27:02;13.75;13.75;2.00
26185;PMS7003;20067;48.764;9.176;2023-08-08T05:29:28;12.25;11.00;2.00
26185;PMS7003;20067;48.764;9.176;2023-08-08T05:31:54;9.75;9.75;1.00
26185;PMS7003;20067;48.764;9.176;2023-08-08T05:34:20;12.00;11.75;1.00
26185;PMS7003;20067;48.764;9.176;2023-08-08T05:36:46;11.25;11.25;1.00
26185;PMS7003;20067;48.764;9.176;2023-08-08T05:39:12;15.00;13.50;2.00
26185;PMS7003;20067;48.764;9.176;2023-08-08T05:41:37;14.00;14.00;2.00
26185;PMS7003;20067;48.764;9.176;2023-08-08T05:44:03;13.75;13.75;2.00
26185;PMS7003;20067;48.764;9.176;2023-08-08T05:46:29;18.25;16.00;1.75
26185;PMS7003;20067;48.764;9.176;2023-08-08T05:48:54;10.75;10.75;2.00
26185;PMS7003;20067;48.764;9.176;2023-08-08T05:51:20;18.00;16.50;2.00
26185;PMS7003;20067;48.764;9.176;2023-08-08T05:53:45;11.00;11.00;1.00
26185;PMS7003;20067;48.764;9.176;2023-08-08T05:56:11;14.75;14.75;2.00
26185;PMS7003;20067;48.764;9.176;2023-08-08T05:58:37;13.75;13.75;2.00
26185;PMS7003;20067;48.764;9.176;2023-08-08T06:01:02;17.75;16.00;2.00
26185;PMS7003;20067;48.764;9.176;2023-08-08T06:03:31;15.75;15.75;2.00
26185;PMS7003;20067;48.764;9.176;2023-08-08T06:05:57;14.00;13.50;2.00
26185;PMS7003;20067;48.764;9.176;2023-08-08T06:08:22;19.25;18.00;1.00
26185;PMS7003;20067;48.764;9.176;2023-08-08T06:10:48;13.00;13.00;2.00
26185;PMS7003;20067;48.764;9.176;2023-08-08T06:13:14;24.75;20.25;3.00
26185;PMS7003;20067;48.764;9.176;2023-08-08T06:15:39;21.50;16.75;3.00
26185;PMS7003;20067;48.764;9.176;2023-08-08T06:18:05;19.00;9.75;3.00
26185;PMS7003;20067;48.764;9.176;2023-08-08T06:20:31;26.75;14.50;3.00
26185;PMS7003;20067;48.764;9.176;2023-08-08T06:22:57;29.25;9.75;3.00
26185;PMS7003;20067;48.764;9.176;2023-08-08T06:25:22;41.75;19.75;3.75
26185;PMS7003;20067;48.764;9.176;2023-08-08T06:27:48;18.00;14.00;2.00
26185;PMS7003;20067;48.764;9.176;2023-08-08T06:30:14;17.00;14.75;1.00
26185;PMS7003;20067;48.764;9.176;2023-08-08T06:32:40;13.75;13.25;1.00
26185;PMS7003;20067;48.764;9.176;2023-08-08T06:35:06;16.50;15.00;1.00
26185;PMS7003;20067;48.764;9.176;2023-08-08T06:37:32;14.25;13.75;1.00
26185;PMS7003;20067;48.764;9.176;2023-08-08T06:39:57;13.50;13.50;1.00
26185;PMS7003;20067;48.764;9.176;2023-08-08T06:42:23;17.75;15.75;2.00
26185;PMS7003;20067;48.764;9.176;2023-08-08T06:44:49;13.25;12.25;1.00
26185;PMS7003;20067;48.764;9.176;2023-08-08T06:47:14;30.25;30.25;5.50
26185;PMS7003;20067;48.764;9.176;2023-08-08T06:49:40;21.50;21.25;4.00
26185;PMS7003;20067;48.764;9.176;2023-08-08T06:52:06;18.00;18.00;2.00
26185;PMS7003;20067;48.764;9.176;2023-08-08T06:54:32;26.75;26.50;4.50
26185;PMS7003;20067;48.764;9.176;2023-08-08T06:56:57;18.25;18.25;2.00
26185;PMS7003;20067;48.764;9.176;2023-08-08T06:59:23;25.25;25.25;4.50
26185;PMS7003;20067;48.764;9.176;2023-08-08T07:01:49;31.75;31.75;7.00
26185;PMS7003;20067;48.764;9.176;2023-08-08T07:04:15;20.00;19.50;4.25
26185;PMS7003;20067;48.764;9.176;2023-08-08T07:06:42;21.75;21.75;4.00
26185;PMS7003;20067;48.764;9.176;2023-08-08T07:09:09;19.50;19.50;4.00
26185;PMS7003;20067;48.764;9.176;2023-08-08T07:11:37;19.00;19.00;2.00
26185;PMS7003;20067;48.764;9.176;2023-08-08T07:14:03;14.25;14.25;2.00
26185;PMS7003;20067;48.764;9.176;2023-08-08T07:16:29;16.25;15.75;2.00
26185;PMS7003;20067;48.764;9.176;2023-08-08T07:18:54;14.25;13.25;1.50
26185;PMS7003;20067;48.764;9.176;2023-08-08T07:21:20;17.00;15.00;1.00
26185;PMS7003;20067;48.764;9.176;2023-08-08T07:23:46;14.50;13.25;1.00
26185;PMS7003;20067;48.764;9.176;2023-08-08T07:26:11;15.50;15.50;2.00
26185;PMS7003;20067;48.764;9.176;2023-08-08T07:28:38;14.25;14.25;1.00
26185;PMS7003;20067;48.764;9.176;2023-08-08T07:31:03;11.25;11.25;1.00
26185;PMS7003;20067;48.764;9.176;2023-08-08T07:33:29;12.25;12.25;1.00
26185;PMS7003;20067;48.764;9.176;2023-08-08T07:35:55;12.00;12.00;1.00
26185;PMS7003;20067;48.764;9.176;2023-08-08T07:38:20;12.00;11.25;2.00
26185;PMS7003;20067;48.764;9.176;2023-08-08T07:40:46;13.75;13.75;2.00
26185;PMS7003;20067;48.764;9.176;2023-08-08T07:43:13;12.25;12.25;2.00
26185;PMS7003;20067;48.764;9.176;2023-08-08T07:45:38;11.75;11.75;1.75
26185;PMS7003;20067;48.764;9.176;2023-08-08T07:48:04;12.00;10.00;1.00
26185;PMS7003;20067;48.764;9.176;2023-08-08T07:50:30;12.50;12.25;3.00
26185;PMS7003;20067;48.764;9.176;2023-08-08T07:52:56;12.00;10.75;1.00
26185;PMS7003;20067;48.764;9.176;2023-08-08T07:55:21;12.25;12.25;1.00
26185;PMS7003;20067;48.764;9.176;2023-08-08T07:57:47;10.00;10.00;1.00
26185;PMS7003;20067;48.764;9.176;2023-08-08T08:00:13;13.00;13.00;2.00
26185;PMS7003;20067;48.764;9.176;2023-08-08T08:02:39;14.25;13.50;3.00
26185;PMS7003;20067;48.764;9.176;2023-08-08T08:05:06;12.50;12.00;1.00
26185;PMS7003;20067;48.764;9.176;2023-08-08T08:07:33;9.25;9.25;1.00
26185;PMS7003;20067;48.764;9.176;2023-08-08T08:09:59;13.75;11.75;2.00
26185;PMS7003;20067;48.764;9.176;2023-08-08T08:12:26;13.25;13.25;1.00
26185;PMS7003;20067;48.764;9.176;2023-08-08T08:14:52;9.75;9.00;0.75
26185;PMS7003;20067;48.764;9.176;2023-08-08T08:17:17;9.50;9.50;1.00
26185;PMS7003;20067;48.764;9.176;2023-08-08T08:19:43;10.75;10.75;1.75
26185;PMS7003;20067;48.764;9.176;2023-08-08T08:22:08;10.50;10.50;1.00
26185;PMS7003;20067;48.764;9.176;2023-08-08T08:24:34;12.00;12.00;2.00
26185;PMS7003;20067;48.764;9.176;2023-08-08T08:27:00;17.00;17.00;2.00
26185;PMS7003;20067;48.764;9.176;2023-08-08T08:29:25;14.75;13.00;2.00
26185;PMS7003;20067;48.764;9.176;2023-08-08T08:31:51;9.25;8.50;1.25
26185;PMS7003;20067;48.764;9.176;2023-08-08T08:34:16;20.00;16.25;2.00
26185;PMS7003;20067;48.764;9.176;2023-08-08T08:36:42;14.50;14.50;1.25
26185;PMS7003;20067;48.764;9.176;2023-08-08T08:39:07;15.50;15.50;2.00
26185;PMS7003;20067;48.764;9.176;2023-08-08T08:41:33;9.25;9.25;1.25
26185;PMS7003;20067;48.764;9.176;2023-08-08T08:44:01;9.25;9.25;1.00
26185;PMS7003;20067;48.764;9.176;2023-08-08T08:46:29;10.25;10.25;2.00
26185;PMS7003;20067;48.764;9.176;2023-08-08T08:48:55;12.75;12.75;1.00
26185;PMS7003;20067;48.764;9.176;2023-08-08T08:51:24;16.50;16.50;2.00
26185;PMS7003;20067;48.764;9.176;2023-08-08T08:53:51;9.75;8.50;1.00
26185;PMS7003;20067;48.764;9.176;2023-08-08T08:56:16;9.50;9.50;1.25
26185;PMS7003;20067;48.764;9.176;2023-08-08T08:58:43;15.50;12.50;2.00
26185;PMS7003;20067;48.764;9.176;2023-08-08T09:01:09;13.25;11.00;2.00
26185;PMS7003;20067;48.764;9.176;2023-08-08T09:03:35;14.00;11.50;2.00
26185;PMS7003;20067;48.764;9.176;2023-08-08T09:06:01;10.25;10.25;2.00
26185;PMS7003;20067;48.764;9.176;2023-08-08T09:08:29;13.50;13.50;2.25
26185;PMS7003;20067;48.764;9.176;2023-08-08T09:10:55;7.00;7.00;1.00
26185;PMS7003;20067;48.764;9.176;2023-08-08T09:13:23;9.75;9.75;1.25
26185;PMS7003;20067;48.764;9.176;2023-08-08T09:15:51;7.50;7.50;1.00
26185;PMS7003;20067;48.764;9.176;2023-08-08T09:18:18;10.75;10.75;1.50
26185;PMS7003;20067;48.764;9.176;2023-08-08T09:20:47;9.50;7.75;1.00
26185;PMS7003;20067;48.764;9.176;2023-08-08T09:23:14;8.25;8.25;1.75
26185;PMS7003;20067;48.764;9.176;2023-08-08T09:25:40;10.00;9.25;1.00
26185;PMS7003;20067;48.764;9.176;2023-08-08T09:28:05;9.50;8.50;1.00
26185;PMS7003;20067;48.764;9.176;2023-08-08T09:30:31;8.75;8.75;1.00
26185;PMS7003;20067;48.764;9.176;2023-08-08T09:33:00;7.50;7.50;1.00
26185;PMS7003;20067;48.764;9.176;2023-08-08T09:35:28;9.25;9.00;1.00
26185;PMS7003;20067;48.764;9.176;2023-08-08T09:37:54;11.00;10.25;1.00
26185;PMS7003;20067;48.764;9.176;2023-08-08T09:40:21;10.00;10.00;1.00
26185;PMS7003;20067;48.764;9.176;2023-08-08T09:42:47;7.75;7.75;2.00
26185;PMS7003;20067;48.764;9.176;2023-08-08T09:45:16;12.00;10.25;1.00
26185;PMS7003;20067;48.764;9.176;2023-08-08T09:47:42;10.50;10.50;2.00
26185;PMS7003;20067;48.764;9.176;2023-08-08T09:50:08;8.25;8.25;1.00
26185;PMS7003;20067;48.764;9.176;2023-08-08T09:52:34;10.00;9.00;1.00
26185;PMS7003;20067;48.764;9.176;2023-08-08T09:55:01;10.50;10.00;1.00
26185;PMS7003;20067;48.764;9.176;2023-08-08T09:57:28;7.50;7.50;1.25
26185;PMS7003;20067;48.764;9.176;2023-08-08T09:59:54;7.25;7.25;1.00
26185;PMS7003;20067;48.764;9.176;2023-08-08T10:02:20;11.75;11.00;2.00
26185;PMS7003;20067;48.764;9.176;2023-08-08T10:04:46;10.25;9.75;1.00
26185;PMS7003;20067;48.764;9.176;2023-08-08T10:07:13;7.75;7.75;1.00
26185;PMS7003;20067;48.764;9.176;2023-08-08T10:09:40;8.00;7.75;1.00
26185;PMS7003;20067;48.764;9.176;2023-08-08T10:12:06;8.00;8.00;1.00
26185;PMS7003;20067;48.764;9.176;2023-08-08T10:14:34;8.00;8.00;1.25
26185;PMS7003;20067;48.764;9.176;2023-08-08T10:17:05;8.00;7.00;1.00
26185;PMS7003;20067;48.764;9.176;2023-08-08T10:19:31;8.00;7.50;1.25
26185;PMS7003;20067;48.764;9.176;2023-08-08T10:22:03;7.00;7.00;1.00
26185;PMS7003;20067;48.764;9.176;2023-08-08T10:24:36;10.50;8.50;2.00
26185;PMS7003;20067;48.764;9.176;2023-08-08T10:27:03;8.25;8.25;1.00
26185;PMS7003;20067;48.764;9.176;2023-08-08T10:29:31;11.75;11.00;1.75
26185;PMS7003;20067;48.764;9.176;2023-08-08T10:32:04;7.50;7.50;1.00
26185;PMS7003;20067;48.764;9.176;2023-08-08T10:34:38;12.00;11.75;1.00
26185;PMS7003;20067;48.764;9.176;2023-08-08T10:37:08;8.75;8.75;1.00
26185;PMS7003;20067;48.764;9.176;2023-08-08T10:39:59;7.00;7.00;0.00
26185;PMS7003;20067;48.764;9.176;2023-08-08T10:42:26;9.75;8.75;1.00
26185;PMS7003;20067;48.764;9.176;2023-08-08T10:44:57;6.50;6.50;0.75
26185;PMS7003;20067;48.764;9.176;2023-08-08T10:47:34;8.00;8.00;1.00
26185;PMS7003;20067;48.764;9.176;2023-08-08T10:50:04;11.00;11.00;1.25
26185;PMS7003;20067;48.764;9.176;2023-08-08T11:00:19;8.00;8.00;0.25
26185;PMS7003;20067;48.764;9.176;2023-08-08T11:02:47;7.75;7.75;1.75
26185;PMS7003;20067;48.764;9.176;2023-08-08T11:05:13;8.00;8.00;1.75
26185;PMS7003;20067;48.764;9.176;2023-08-08T11:07:40;8.75;8.00;1.00
26185;PMS7003;20067;48.764;9.176;2023-08-08T11:10:07;9.75;8.25;2.00
26185;PMS7003;20067;48.764;9.176;2023-08-08T11:12:33;9.00;9.00;2.00
26185;PMS7003;20067;48.764;9.176;2023-08-08T11:14:59;9.00;9.00;1.00
26185;PMS7003;20067;48.764;9.176;2023-08-08T11:17:25;7.25;7.25;1.00
26185;PMS7003;20067;48.764;9.176;2023-08-08T11:19:50;6.00;5.50;1.00
26185;PMS7003;20067;48.764;9.176;2023-08-08T11:22:16;10.00;8.75;1.00
26185;PMS7003;20067;48.764;9.176;2023-08-08T11:24:42;11.00;11.00;1.00
26185;PMS7003;20067;48.764;9.176;2023-08-08T11:27:07;10.00;10.00;1.00
26185;PMS7003;20067;48.764;9.176;2023-08-08T11:29:33;11.25;10.25;1.00
26185;PMS7003;20067;48.764;9.176;2023-08-08T11:31:59;10.00;10.00;1.75
26185;PMS7003;20067;48.764;9.176;2023-08-08T11:34:29;13.00;13.00;1.50
26185;PMS7003;20067;48.764;9.176;2023-08-08T11:36:56;9.75;9.00;1.75
26185;PMS7003;20067;48.764;9.176;2023-08-08T11:39:23;9.00;9.00;1.00
26185;PMS7003;20067;48.764;9.176;2023-08-08T11:41:49;8.50;7.50;1.00
26185;PMS7003;20067;48.764;9.176;2023-08-08T11:44:15;10.50;10.50;2.00
26185;PMS7003;20067;48.764;9.176;2023-08-08T11:46:43;10.25;9.75;1.00
26185;PMS7003;20067;48.764;9.176;2023-08-08T11:49:10;18.00;16.00;3.00
26185;PMS7003;20067;48.764;9.176;2023-08-08T11:51:38;16.75;15.25;3.00
26185;PMS7003;20067;48.764;9.176;2023-08-08T11:54:03;9.00;9.00;1.00
26185;PMS7003;20067;48.764;9.176;2023-08-08T11:56:32;10.75;10.75;3.00
26185;PMS7003;20067;48.764;9.176;2023-08-08T11:58:59;5.75;5.75;1.00
26185;PMS7003;20067;48.764;9.176;2023-08-08T12:01:25;8.00;8.00;1.00
26185;PMS7003;20067;48.764;9.176;2023-08-08T12:03:52;8.50;8.50;1.50
26185;PMS7003;20067;48.764;9.176;2023-08-08T12:06:19;8.75;8.00;1.00
26185;PMS7003;20067;48.764;9.176;2023-08-08T12:08:46;8.50;8.50;0.50
26185;PMS7003;20067;48.764;9.176;2023-08-08T12:11:12;6.50;6.50;0.00
26185;PMS7003;20067;48.764;9.176;2023-08-08T12:13:43;10.00;9.00;1.00
26185;PMS7003;20067;48.764;9.176;2023-08-08T12:16:10;10.25;10.25;1.75
26185;PMS7003;20067;48.764;9.176;2023-08-08T12:18:37;9.50;9.50;1.00
26185;PMS7003;20067;48.764;9.176;2023-08-08T12:21:04;10.75;10.75;1.00
26185;PMS7003;20067;48.764;9.176;2023-08-08T12:23:30;7.00;7.00;2.00
26185;PMS7003;20067;48.764;9.176;2023-08-08T12:25:57;10.50;8.25;2.00
26185;PMS7003;20067;48.764;9.176;2023-08-08T12:28:24;13.75;13.50;4.00
26185;PMS7003;20067;48.764;9.176;2023-08-08T12:30:50;12.25;12.25;2.00
26185;PMS7003;20067;48.764;9.176;2023-08-08T12:33:15;11.00;11.00;2.00
26185;PMS7003;20067;48.764;9.176;2023-08-08T12:35:41;9.75;9.75;2.00
26185;PMS7003;20067;48.764;9.176;2023-08-08T12:38:06;10.25;10.25;2.00
26185;PMS7003;20067;48.764;9.176;2023-08-08T12:40:32;11.00;11.00;2.00
26185;PMS7003;20067;48.764;9.176;2023-08-08T12:42:58;9.00;9.00;1.00
26185;PMS7003;20067;48.764;9.176;2023-08-08T12:45:24;9.00;9.00;2.00
26185;PMS7003;20067;48.764;9.176;2023-08-08T12:47:50;9.75;8.50;1.25
26185;PMS7003;20067;48.764;9.176;2023-08-08T12:50:16;10.25;10.25;1.50
26185;PMS7003;20067;48.764;9.176;2023-08-08T12:52:42;10.75;10.00;3.00
26185;PMS7003;20067;48.764;9.176;2023-08-08T12:55:08;8.25;8.25;1.00
26185;PMS7003;20067;48.764;9.176;2023-08-08T12:57:36;10.00;10.00;1.00
26185;PMS7003;20067;48.764;9.176;2023-08-08T13:00:01;10.25;10.25;1.50
26185;PMS7003;20067;48.764;9.176;2023-08-08T13:02:27;12.50;12.50;4.00
26185;PMS7003;20067;48.764;9.176;2023-08-08T13:04:53;11.75;11.00;1.75
26185;PMS7003;20067;48.764;9.176;2023-08-08T13:07:19;11.25;10.75;1.00
26185;PMS7003;20067;48.764;9.176;2023-08-08T13:09:44;10.50;10.00;2.00
26185;PMS7003;20067;48.764;9.176;2023-08-08T13:12:10;12.00;12.00;2.00
26185;PMS7003;20067;48.764;9.176;2023-08-08T13:14:35;10.25;10.25;2.00
26185;PMS7003;20067;48.764;9.176;2023-08-08T13:17:01;10.00;10.00;1.25
26185;PMS7003;20067;48.764;9.176;2023-08-08T13:19:27;10.00;10.00;2.00
26185;PMS7003;20067;48.764;9.176;2023-08-08T13:21:53;9.75;9.50;1.00
26185;PMS7003;20067;48.764;9.176;2023-08-08T13:24:19;9.25;9.25;2.00
26185;PMS7003;20067;48.764;9.176;2023-08-08T13:26:47;13.50;13.00;2.00
26185;PMS7003;20067;48.764;9.176;2023-08-08T13:29:14;15.75;14.75;2.00
26185;PMS7003;20067;48.764;9.176;2023-08-08T13:31:39;12.00;11.50;2.00
26185;PMS7003;20067;48.764;9.176;2023-08-08T13:34:05;15.75;15.75;2.00
26185;PMS7003;20067;48.764;9.176;2023-08-08T13:36:30;13.00;13.00;1.50
26185;PMS7003;20067;48.764;9.176;2023-08-08T13:38:56;16.50;16.50;2.00
26185;PMS7003;20067;48.764;9.176;2023-08-08T13:41:22;22.00;20.00;2.50
26185;PMS7003;20067;48.764;9.176;2023-08-08T13:43:47;14.25;13.75;1.25
26185;PMS7003;20067;48.764;9.176;2023-08-08T13:46:13;15.75;15.75;3.00
26185;PMS7003;20067;48.764;9.176;2023-08-08T13:48:39;17.25;17.25;2.00
26185;PMS7003;20067;48.764;9.176;2023-08-08T13:51:05;9.75;9.75;2.00
26185;PMS7003;20067;48.764;9.176;2023-08-08T13:53:30;10.25;9.50;1.75
26185;PMS7003;20067;48.764;9.176;2023-08-08T13:55:56;11.25;11.25;2.50
26185;PMS7003;20067;48.764;9.176;2023-08-08T13:58:21;10.00;10.00;2.50
26185;PMS7003;20067;48.764;9.176;2023-08-08T14:00:47;11.00;11.00;2.00
26185;PMS7003;20067;48.764;9.176;2023-08-08T14:03:14;9.25;8.50;2.00
26185;PMS7003;20067;48.764;9.176;2023-08-08T14:05:39;10.00;9.00;2.00
26185;PMS7003;20067;48.764;9.176;2023-08-08T14:08:05;7.00;7.00;1.00
26185;PMS7003;20067;48.764;9.176;2023-08-08T14:10:31;10.50;10.00;3.00